Time;durP1;ratioP1;P1;durP2;ratioP2;P2;SDS_P1;SDS_P2;PMS_P1;PMS_P2;Temp;Humidity;BMP_temperature;BMP_pressure;BME280_temperature;BME280_humidity;BME280_pressure;Samples;Min_cycle;Max_cycle;Signal;HPM_P1;HPM_P2
2021/04/05 00:02:21;;;;;;;4.68;3.67;;;2.70;99.90;;;;;;5033827;28;20078;-78
2021/04/05 00:04:47;;;;;;;6.50;3.50;;;2.60;99.90;;;;;;5050041;28;20069;-79
2021/04/05 00:07:12;;;;;;;5.10;3.42;;;2.70;99.90;;;;;;5039072;28;20582;-78
2021/04/05 00:09:39;;;;;;;4.50;3.13;;;2.70;99.90;;;;;;5045358;28;20089;-78
2021/04/05 00:12:09;;;;;;;5.25;3.28;;;2.70;99.90;;;;;;5033864;28;20085;-77
2021/04/05 00:14:37;;;;;;;6.00;3.00;;;2.20;99.90;;;;;;5040861;28;20074;-77
2021/04/05 00:17:05;;;;;;;6.93;4.13;;;2.10;99.90;;;;;;5042526;28;20078;-80
2021/04/05 00:19:33;;;;;;;4.03;3.17;;;2.30;99.90;;;;;;5039598;28;20101;-77
2021/04/05 00:21:58;;;;;;;4.97;3.38;;;2.30;99.90;;;;;;5032791;28;20066;-78
2021/04/05 00:24:24;;;;;;;5.68;3.17;;;2.30;99.90;;;;;;5037026;28;20594;-77
2021/04/05 00:26:49;;;;;;;4.30;2.95;;;2.30;99.90;;;;;;5026001;28;20073;-78
2021/04/05 00:29:15;;;;;;;5.72;4.30;;;2.10;99.90;;;;;;5041077;28;20134;-78
2021/04/05 00:31:40;;;;;;;4.40;3.08;;;2.00;99.90;;;;;;5036951;28;20072;-76
2021/04/05 00:34:06;;;;;;;4.32;3.20;;;2.20;99.90;;;;;;5035754;28;20070;-79
2021/04/05 00:36:32;;;;;;;6.57;3.22;;;2.40;99.90;;;;;;5042995;28;20097;-77
2021/04/05 00:38:57;;;;;;;10.10;4.03;;;2.40;99.90;;;;;;5051074;28;20081;-79
2021/04/05 00:41:24;;;;;;;5.68;3.17;;;2.50;99.90;;;;;;5032673;28;20094;-78
2021/04/05 00:43:51;;;;;;;4.72;3.30;;;2.50;99.90;;;;;;5046358;28;20159;-77
2021/04/05 00:46:22;;;;;;;7.28;3.45;;;2.40;99.90;;;;;;5044691;28;20483;-78
2021/04/05 00:48:49;;;;;;;5.30;2.88;;;2.30;99.90;;;;;;5033140;28;20093;-77
2021/04/05 00:51:18;;;;;;;3.40;2.50;;;2.40;99.90;;;;;;5051501;28;20139;-77
2021/04/05 00:53:47;;;;;;;5.32;3.38;;;2.40;99.90;;;;;;5034639;28;20204;-77
2021/04/05 00:56:14;;;;;;;5.70;3.05;;;2.40;99.90;;;;;;5040274;28;20097;-77
2021/04/05 00:58:40;;;;;;;8.45;2.88;;;2.40;99.90;;;;;;5050099;28;20120;-80
2021/04/05 01:01:09;;;;;;;4.80;2.50;;;2.70;99.90;;;;;;5033675;28;20138;-77
2021/04/05 01:03:38;;;;;;;3.72;2.75;;;2.60;99.90;;;;;;5048628;28;20115;-77
2021/04/05 01:06:04;;;;;;;6.15;2.80;;;2.80;99.90;;;;;;5043138;28;20078;-78
2021/04/05 01:08:29;;;;;;;4.88;2.78;;;2.70;99.90;;;;;;5040991;28;20093;-79
2021/04/05 01:10:55;;;;;;;5.13;3.00;;;2.60;99.90;;;;;;5045907;28;20085;-77
2021/04/05 01:13:21;;;;;;;6.78;2.33;;;2.60;99.90;;;;;;5036790;28;20542;-77
2021/04/05 01:15:47;;;;;;;3.65;2.38;;;2.50;99.90;;;;;;5033450;28;20077;-77
2021/04/05 01:18:16;;;;;;;3.90;2.60;;;2.60;99.90;;;;;;5032052;28;20187;-77
2021/04/05 01:20:45;;;;;;;4.28;2.40;;;2.60;99.90;;;;;;5036848;28;20180;-78
2021/04/05 01:23:12;;;;;;;6.07;2.50;;;2.60;99.90;;;;;;5042543;28;20112;-77
2021/04/05 01:25:38;;;;;;;3.35;2.63;;;2.60;99.90;;;;;;5042904;28;20105;-77
2021/04/05 01:28:03;;;;;;;4.75;2.90;;;2.80;99.90;;;;;;5037767;28;20556;-79
2021/04/05 01:30:41;;;;;;;5.28;2.78;;;2.60;99.90;;;;;;5031216;28;20176;-77
2021/04/05 01:33:08;;;;;;;3.75;1.98;;;2.80;99.90;;;;;;5032078;28;20587;-80
2021/04/05 01:35:39;;;;;;;2.88;2.10;;;2.70;99.90;;;;;;5033643;28;20433;-78
2021/04/05 01:38:05;;;;;;;3.50;2.20;;;2.90;99.90;;;;;;5049304;28;20139;-77
2021/04/05 01:40:40;;;;;;;5.10;2.40;;;3.00;99.90;;;;;;5044882;28;20104;-77
2021/04/05 01:43:06;;;;;;;4.10;2.53;;;3.10;99.90;;;;;;5034801;28;20084;-77
2021/04/05 01:45:32;;;;;;;5.20;2.63;;;2.90;99.90;;;;;;5049064;28;20638;-81
2021/04/05 01:47:58;;;;;;;6.05;2.63;;;2.70;99.90;;;;;;5037761;28;20136;-77
2021/04/05 01:50:24;;;;;;;3.60;2.03;;;2.60;99.90;;;;;;5047907;28;20113;-77
2021/04/05 01:52:50;;;;;;;8.35;2.60;;;2.70;99.90;;;;;;5044790;28;20160;-77
2021/04/05 01:55:16;;;;;;;3.92;2.45;;;2.70;99.90;;;;;;5039150;28;20149;-79
2021/04/05 01:57:42;;;;;;;7.80;2.95;;;2.60;99.90;;;;;;5036360;28;20538;-75
2021/04/05 02:00:12;;;;;;;4.57;2.40;;;2.60;99.90;;;;;;5043768;28;20101;-76
2021/04/05 02:02:39;;;;;;;4.30;2.22;;;2.70;99.90;;;;;;5040651;28;20123;-77
2021/04/05 02:05:07;;;;;;;7.57;2.80;;;2.70;99.90;;;;;;5052531;28;20454;-77
2021/04/05 02:07:38;;;;;;;4.35;2.38;;;2.90;99.90;;;;;;5038479;28;20078;-77
2021/04/05 02:10:11;;;;;;;4.63;2.30;;;2.90;99.90;;;;;;5041956;28;20099;-77
2021/04/05 02:12:39;;;;;;;4.82;2.10;;;3.10;99.90;;;;;;5037984;28;20119;-77
2021/04/05 02:15:09;;;;;;;3.10;2.17;;;3.00;99.90;;;;;;5020920;28;20074;-81
2021/04/05 02:17:35;;;;;;;11.95;2.70;;;3.20;99.90;;;;;;5028313;28;20113;-76
2021/04/05 02:20:01;;;;;;;3.67;2.78;;;3.30;99.90;;;;;;5035831;28;20204;-76
2021/04/05 02:22:27;;;;;;;3.58;2.28;;;3.10;99.90;;;;;;5038433;28;20216;-76
2021/04/05 02:24:53;;;;;;;4.50;2.30;;;3.20;99.90;;;;;;5042581;28;20088;-77
2021/04/05 02:27:19;;;;;;;5.60;2.47;;;3.00;99.90;;;;;;5036037;28;20078;-76
2021/04/05 02:29:45;;;;;;;3.70;2.22;;;2.90;99.90;;;;;;5031863;28;20101;-76
2021/04/05 02:32:11;;;;;;;3.10;2.13;;;2.90;99.90;;;;;;5014018;28;20074;-76
2021/04/05 02:34:36;;;;;;;3.30;2.15;;;3.10;99.90;;;;;;5042591;28;20084;-76
2021/04/05 02:37:02;;;;;;;4.95;2.42;;;3.10;99.90;;;;;;5039902;28;20070;-76
2021/04/05 02:39:28;;;;;;;3.53;2.15;;;3.20;99.90;;;;;;5030197;28;20793;-76
2021/04/05 02:41:54;;;;;;;5.22;2.17;;;3.10;99.90;;;;;;5029218;28;20087;-76
2021/04/05 02:44:20;;;;;;;3.28;2.20;;;3.10;99.90;;;;;;5044693;28;20555;-76
2021/04/05 02:46:47;;;;;;;3.83;2.50;;;3.10;99.90;;;;;;5044248;28;20074;-76
2021/04/05 02:49:15;;;;;;;3.63;2.30;;;3.10;99.90;;;;;;5042720;28;20098;-76
2021/04/05 02:51:45;;;;;;;3.03;2.00;;;3.10;99.90;;;;;;5042412;28;20077;-76
2021/04/05 02:54:12;;;;;;;4.00;2.17;;;3.20;99.90;;;;;;5033714;28;20074;-76
2021/04/05 02:56:39;;;;;;;4.53;2.40;;;3.30;99.90;;;;;;5035855;28;20078;-76
2021/04/05 02:59:06;;;;;;;5.90;2.33;;;3.40;99.90;;;;;;5027924;28;20548;-76
2021/04/05 03:01:32;;;;;;;3.85;2.10;;;3.60;99.90;;;;;;5049040;28;20125;-76
2021/04/05 03:03:59;;;;;;;3.10;2.00;;;3.60;99.90;;;;;;5049567;28;20112;-76
2021/04/05 03:06:27;;;;;;;4.22;2.38;;;3.60;99.90;;;;;;5047160;28;20157;-76
2021/04/05 03:08:53;;;;;;;2.83;1.98;;;3.50;99.90;;;;;;5017642;28;20492;-76
2021/04/05 03:11:21;;;;;;;3.88;1.58;;;3.40;99.90;;;;;;5030105;28;20090;-76
2021/04/05 03:13:48;;;;;;;4.13;2.63;;;3.30;99.90;;;;;;5033357;28;20062;-76
2021/04/05 03:16:19;;;;;;;2.58;1.90;;;3.30;99.90;;;;;;5032921;28;20078;-76
2021/04/05 03:18:46;;;;;;;3.67;1.70;;;3.20;99.90;;;;;;5043341;28;20069;-75
2021/04/05 03:21:15;;;;;;;2.90;1.90;;;3.20;99.90;;;;;;5038164;28;20312;-76
2021/04/05 03:23:41;;;;;;;6.32;2.30;;;3.00;99.90;;;;;;5042510;28;20100;-78
2021/04/05 03:26:07;;;;;;;2.95;2.00;;;2.90;99.90;;;;;;5038162;28;20212;-76
2021/04/05 03:28:33;;;;;;;4.78;2.13;;;2.90;99.90;;;;;;5033629;28;20173;-76
2021/04/05 03:31:06;;;;;;;3.40;2.05;;;2.90;99.90;;;;;;5050588;28;20097;-76
2021/04/05 03:33:40;;;;;;;2.83;2.03;;;2.90;99.90;;;;;;5046668;28;20523;-76
2021/04/05 03:36:12;;;;;;;3.05;1.65;;;3.00;99.90;;;;;;5025493;28;20081;-76
2021/04/05 03:38:37;;;;;;;2.88;2.17;;;3.20;99.90;;;;;;5038581;28;20113;-76
2021/04/05 03:41:12;;;;;;;3.17;2.05;;;3.30;99.90;;;;;;5045436;28;20171;-77
2021/04/05 03:44:16;;;;;;;2.22;1.95;;;3.30;99.90;;;;;;5037065;28;20113;-76
2021/04/05 03:46:45;;;;;;;4.78;1.95;;;3.40;99.90;;;;;;5032299;28;20188;-76
2021/04/05 03:49:35;;;;;;;4.57;1.98;;;3.50;99.90;;;;;;5037199;28;20154;-76
2021/04/05 03:52:04;;;;;;;3.97;1.90;;;3.20;99.90;;;;;;5037450;28;20069;-76
2021/04/05 03:54:42;;;;;;;8.77;2.00;;;3.10;99.90;;;;;;5036797;28;20080;-77
2021/04/05 03:57:09;;;;;;;6.47;2.38;;;3.00;99.90;;;;;;5049391;28;20081;-76
2021/04/05 03:59:38;;;;;;;3.95;2.38;;;3.00;99.90;;;;;;5034757;28;20552;-76
2021/04/05 04:02:11;;;;;;;2.70;1.65;;;3.10;99.90;;;;;;5032999;28;20086;-76
2021/04/05 04:04:46;;;;;;;5.03;2.28;;;2.90;99.90;;;;;;5043128;28;20093;-76
2021/04/05 04:09:40;;;;;;;4.13;2.10;;;2.80;99.90;;;;;;5036264;28;20112;-76
2021/04/05 04:12:13;;;;;;;3.13;1.98;;;2.80;99.90;;;;;;5041630;28;20065;-76
2021/04/05 04:14:41;;;;;;;4.18;3.00;;;2.70;99.90;;;;;;5015603;28;20081;-76
2021/04/05 04:17:08;;;;;;;3.40;1.90;;;2.80;99.90;;;;;;5031807;28;20085;-76
2021/04/05 04:19:36;;;;;;;4.07;1.80;;;2.70;99.90;;;;;;5046219;28;20108;-76
2021/04/05 04:22:03;;;;;;;3.25;1.85;;;2.80;99.90;;;;;;5051856;28;20069;-76
2021/04/05 04:24:29;;;;;;;4.65;1.92;;;2.80;99.90;;;;;;5033901;28;20493;-76
2021/04/05 04:26:55;;;;;;;3.05;1.95;;;2.80;99.90;;;;;;5032385;28;20081;-76
2021/04/05 04:29:22;;;;;;;3.60;2.20;;;2.70;99.90;;;;;;5040281;28;21126;-76
2021/04/05 04:31:48;;;;;;;2.55;1.83;;;2.60;99.90;;;;;;5032623;28;20618;-76
2021/04/05 04:34:18;;;;;;;3.85;2.22;;;2.50;99.90;;;;;;5037988;28;20080;-76
2021/04/05 04:36:45;;;;;;;6.22;1.80;;;2.70;99.90;;;;;;5033788;28;20543;-76
2021/04/05 04:39:12;;;;;;;3.33;2.13;;;2.50;99.90;;;;;;5044606;28;20081;-76
2021/04/05 04:41:41;;;;;;;3.90;1.77;;;2.40;99.90;;;;;;5032036;28;20077;-76
2021/04/05 04:44:07;;;;;;;3.47;2.10;;;2.40;99.90;;;;;;5034494;28;20074;-76
2021/04/05 04:46:33;;;;;;;4.70;2.33;;;2.40;99.90;;;;;;5028808;28;20082;-76
2021/04/05 04:49:01;;;;;;;3.17;2.25;;;2.30;99.90;;;;;;5029285;28;20566;-76
2021/04/05 04:51:27;;;;;;;3.83;2.17;;;2.40;99.90;;;;;;5031330;28;20128;-76
2021/04/05 04:53:55;;;;;;;4.03;1.98;;;2.50;99.90;;;;;;5031530;28;20436;-76
2021/04/05 04:56:21;;;;;;;5.70;1.90;;;2.50;99.90;;;;;;5041883;28;20093;-76
2021/04/05 04:58:47;;;;;;;5.32;1.90;;;2.60;99.90;;;;;;5044453;28;20077;-76
2021/04/05 05:01:13;;;;;;;3.47;1.80;;;2.80;99.90;;;;;;5032078;28;20167;-76
2021/04/05 05:03:44;;;;;;;4.35;1.98;;;2.70;99.90;;;;;;5038369;28;20216;-76
2021/04/05 05:06:12;;;;;;;3.58;1.67;;;2.90;99.90;;;;;;5046825;28;20078;-76
2021/04/05 05:08:39;;;;;;;4.32;2.25;;;2.90;99.90;;;;;;5045975;28;20093;-76
2021/04/05 05:11:05;;;;;;;5.47;2.00;;;2.90;99.90;;;;;;5031110;28;20098;-76
2021/04/05 05:13:31;;;;;;;2.55;1.48;;;3.10;99.90;;;;;;5036737;28;20074;-76
2021/04/05 05:15:56;;;;;;;2.72;1.73;;;3.20;99.90;;;;;;5013768;28;20173;-75
2021/04/05 05:18:24;;;;;;;4.65;1.95;;;3.30;99.90;;;;;;5030517;28;20539;-76
2021/04/05 05:20:53;;;;;;;3.70;1.58;;;3.50;99.90;;;;;;5030369;28;20106;-76
2021/04/05 05:23:20;;;;;;;3.03;2.00;;;3.40;99.90;;;;;;5037572;28;20078;-76
2021/04/05 05:25:47;;;;;;;3.22;2.38;;;3.50;99.90;;;;;;5034746;28;20090;-76
2021/04/05 05:28:16;;;;;;;2.67;1.42;;;3.60;99.90;;;;;;5040326;28;20100;-76
2021/04/05 05:30:42;;;;;;;4.20;2.10;;;3.70;99.90;;;;;;5045678;28;20582;-76
2021/04/05 05:33:08;;;;;;;2.80;1.90;;;3.80;99.90;;;;;;5048620;28;20085;-76
2021/04/05 05:35:35;;;;;;;5.28;2.13;;;3.80;99.90;;;;;;5047486;28;20074;-76
2021/04/05 05:38:05;;;;;;;3.53;2.05;;;3.80;99.90;;;;;;5031479;28;20084;-76
2021/04/05 05:40:33;;;;;;;2.70;1.63;;;3.90;99.90;;;;;;5030761;28;20093;-76
2021/04/05 05:43:09;;;;;;;4.05;1.67;;;4.10;99.90;;;;;;5038964;28;20089;-76
2021/04/05 05:45:55;;;;;;;3.70;2.05;;;4.20;99.90;;;;;;5045872;28;20078;-77
2021/04/05 05:48:39;;;;;;;;;;;4.40;99.90;;;;;;5041967;28;20093;-76
2021/04/05 05:51:22;;;;;;;2.78;1.67;;;4.80;99.90;;;;;;5040279;28;19983;-76
2021/04/05 05:53:54;;;;;;;4.88;1.85;;;5.00;99.90;;;;;;5028478;28;20593;-76
2021/04/05 05:56:41;;;;;;;3.90;2.08;;;5.30;99.80;;;;;;5031492;28;20119;-76
2021/04/05 05:59:39;;;;;;;2.70;1.98;;;5.30;99.60;;;;;;5014143;28;20535;-76
2021/04/05 06:02:48;;;;;;;3.15;1.50;;;5.50;99.90;;;;;;5038594;28;20168;-76
2021/04/05 06:05:49;;;;;;;3.05;1.88;;;5.70;98.40;;;;;;5030202;28;20062;-76
2021/04/05 06:08:33;;;;;;;6.05;2.00;;;5.90;97.60;;;;;;5034585;28;20943;-76
2021/04/05 06:11:27;;;;;;;4.05;2.28;;;5.90;98.50;;;;;;5040271;28;20084;-76
2021/04/05 06:14:08;;;;;;;3.85;2.17;;;6.10;97.40;;;;;;5038839;28;20108;-76
2021/04/05 06:16:34;;;;;;;3.92;2.00;;;6.10;97.30;;;;;;5032234;28;20105;-76
2021/04/05 06:18:59;;;;;;;6.22;2.20;;;6.00;97.70;;;;;;5031361;28;20108;-76
2021/04/05 06:21:46;;;;;;;4.50;2.40;;;6.10;97.30;;;;;;5029470;28;20133;-76
2021/04/05 06:24:34;;;;;;;3.25;1.80;;;6.10;97.20;;;;;;5027808;28;20073;-76
2021/04/05 06:27:13;;;;;;;3.30;1.77;;;6.10;97.10;;;;;;5010826;28;20074;-76
2021/04/05 06:30:09;;;;;;;6.03;1.98;;;6.30;97.30;;;;;;5037985;28;20097;-76
2021/04/05 06:32:47;;;;;;;2.53;1.70;;;6.40;97.00;;;;;;5032716;28;20105;-75
2021/04/05 06:35:30;;;;;;;3.97;2.13;;;6.50;96.50;;;;;;5036970;28;20215;-76
2021/04/05 06:38:01;;;;;;;3.55;1.98;;;6.70;96.10;;;;;;5048051;28;20069;-76
2021/04/05 06:40:32;;;;;;;3.20;2.15;;;6.90;95.60;;;;;;5030955;28;20601;-76
2021/04/05 06:43:12;;;;;;;5.47;2.13;;;7.00;96.20;;;;;;5030962;28;20078;-76
2021/04/05 06:46:08;;;;;;;7.00;2.50;;;7.00;95.80;;;;;;5042231;28;20177;-76
2021/04/05 06:49:04;;;;;;;3.33;2.03;;;7.00;96.10;;;;;;5032129;28;20101;-76
2021/04/05 06:51:35;;;;;;;;;;;7.10;95.20;;;;;;5044018;28;20096;-76
2021/04/05 06:54:44;;;;;;;5.03;2.05;;;7.30;96.50;;;;;;5049034;28;20039;-76
2021/04/05 06:57:15;;;;;;;5.25;2.25;;;7.40;95.50;;;;;;5034033;28;20090;-76
2021/04/05 06:59:46;;;;;;;4.78;1.90;;;7.50;94.60;;;;;;5041346;28;20098;-76
2021/04/05 07:02:34;;;;;;;6.55;2.30;;;7.50;95.10;;;;;;5043218;28;20156;-78
2021/04/05 07:05:21;;;;;;;4.90;1.90;;;7.60;95.30;;;;;;5042832;28;20160;-76
2021/04/05 07:07:56;;;;;;;6.80;2.22;;;7.80;94.60;;;;;;5040364;28;20077;-77
2021/04/05 07:10:25;;;;;;;4.85;2.10;;;7.70;94.40;;;;;;5039410;28;20100;-77
2021/04/05 07:13:02;;;;;;;3.42;1.92;;;7.80;95.00;;;;;;5029812;28;20729;-77
2021/04/05 07:15:43;;;;;;;6.15;2.30;;;7.80;94.10;;;;;;5047918;28;20539;-76
2021/04/05 07:18:27;;;;;;;3.38;1.75;;;7.90;93.60;;;;;;5021293;28;20124;-78
2021/04/05 07:21:02;;;;;;;4.45;1.63;;;8.10;94.20;;;;;;5038100;28;20252;-76
2021/04/05 07:23:43;;;;;;;3.65;1.77;;;8.20;93.90;;;;;;5033516;28;20088;-76
2021/04/05 07:26:27;;;;;;;6.00;2.33;;;8.20;94.00;;;;;;5033197;28;20074;-76
2021/04/05 07:29:17;;;;;;;3.30;2.03;;;8.30;94.20;;;;;;5032483;28;20093;-76
2021/04/05 07:32:04;;;;;;;4.07;1.80;;;8.60;94.80;;;;;;5037427;28;20074;-76
2021/04/05 07:35:03;;;;;;;3.80;2.13;;;8.60;93.10;;;;;;5040924;28;20093;-76
2021/04/05 07:38:05;;;;;;;3.63;1.90;;;8.70;92.30;;;;;;5029620;28;20074;-76
2021/04/05 07:41:12;;;;;;;6.57;2.90;;;8.90;93.60;;;;;;5043101;28;20755;-76
2021/04/05 07:43:57;;;;;;;4.05;2.28;;;9.10;92.90;;;;;;4959388;28;20094;-75
2021/04/05 07:46:37;;;;;;;4.50;2.45;;;9.30;92.00;;;;;;5041307;28;20074;-76
2021/04/05 07:49:31;;;;;;;4.45;2.03;;;9.40;91.20;;;;;;5021031;28;20090;-76
2021/04/05 07:52:06;;;;;;;4.38;2.63;;;9.40;91.70;;;;;;5038567;28;20074;-77
2021/04/05 07:54:38;;;;;;;3.97;2.58;;;9.40;90.10;;;;;;5022577;28;20077;-76
2021/04/05 07:57:16;;;;;;;6.43;3.15;;;9.40;90.90;;;;;;5013240;28;20081;-76
2021/04/05 08:00:08;;;;;;;4.85;2.72;;;9.50;90.80;;;;;;5036268;28;20120;-76
2021/04/05 08:02:34;;;;;;;3.38;1.73;;;9.60;90.90;;;;;;5042983;28;20164;-76
2021/04/05 08:05:30;;;;;;;3.17;2.03;;;9.70;90.60;;;;;;5037726;28;20156;-76
2021/04/05 08:08:15;;;;;;;3.83;1.95;;;9.70;90.50;;;;;;5022761;28;20556;-78
2021/04/05 08:11:20;;;;;;;2.72;1.98;;;9.90;87.70;;;;;;5031880;28;20089;-76
2021/04/05 08:13:58;;;;;;;;;;;9.80;87.10;;;;;;5042632;28;20077;-76
2021/04/05 08:16:41;;;;;;;4.18;2.28;;;10.00;87.60;;;;;;5047908;28;19968;-77
2021/04/05 08:19:22;;;;;;;5.85;2.15;;;10.20;86.60;;;;;;5042989;28;20573;-77
2021/04/05 08:22:16;;;;;;;4.47;2.47;;;10.10;88.50;;;;;;5043215;28;20090;-76
2021/04/05 08:24:58;;;;;;;4.90;2.20;;;10.50;88.80;;;;;;5037938;28;20082;-76
2021/04/05 08:27:39;;;;;;;6.57;2.60;;;10.60;87.10;;;;;;5049653;28;20084;-76
2021/04/05 08:30:11;;;;;;;3.70;1.92;;;10.40;87.50;;;;;;5049768;28;20108;-76
2021/04/05 08:32:56;;;;;;;4.82;2.25;;;10.70;87.20;;;;;;5030264;28;20069;-76
2021/04/05 08:35:42;;;;;;;3.88;2.80;;;10.90;85.40;;;;;;5019560;28;20131;-76
2021/04/05 08:38:16;;;;;;;5.45;1.88;;;11.10;84.30;;;;;;5047064;28;20128;-79
2021/04/05 08:41:11;;;;;;;4.55;2.22;;;11.10;82.80;;;;;;5030060;28;20104;-78
2021/04/05 08:43:46;;;;;;;6.30;2.08;;;11.20;80.40;;;;;;5055148;28;20080;-77
2021/04/05 08:46:13;;;;;;;4.80;2.28;;;11.30;74.50;;;;;;5049129;28;20474;-79
2021/04/05 08:48:48;;;;;;;5.88;2.13;;;11.20;75.70;;;;;;5044736;28;20093;-78
2021/04/05 08:51:41;;;;;;;5.22;2.20;;;11.40;78.60;;;;;;5038232;28;20725;-77
2021/04/05 08:54:08;;;;;;;5.78;2.50;;;11.50;77.70;;;;;;5044667;28;20072;-77
2021/04/05 08:56:42;;;;;;;4.45;2.13;;;11.60;75.90;;;;;;5045868;28;20164;-77
2021/04/05 08:59:12;;;;;;;2.63;1.83;;;11.50;76.90;;;;;;5039301;28;20073;-76
2021/04/05 09:01:46;;;;;;;6.90;2.20;;;11.50;74.10;;;;;;5050088;28;20126;-79
2021/04/05 09:04:14;;;;;;;;;;;11.40;72.50;;;;;;5034149;28;20112;-77
2021/04/05 09:06:51;;;;;;;3.97;2.10;;;11.60;77.80;;;;;;5021072;28;19976;-77
2021/04/05 09:09:19;;;;;;;3.25;1.90;;;11.70;76.60;;;;;;5043656;28;20127;-77
2021/04/05 09:11:45;;;;;;;4.07;2.13;;;12.00;72.40;;;;;;5023492;28;20592;-76
2021/04/05 09:14:15;;;;;;;4.03;1.63;;;12.00;72.40;;;;;;5044960;28;20124;-78
2021/04/05 09:17:11;;;;;;;2.42;1.88;;;12.00;69.00;;;;;;5020936;28;20081;-77
2021/04/05 09:19:56;;;;;;;2.42;1.98;;;12.00;73.00;;;;;;5018005;28;20096;-77
2021/04/05 09:22:41;;;;;;;4.57;1.80;;;12.10;69.60;;;;;;5034001;28;20210;-77
2021/04/05 09:25:31;;;;;;;4.47;1.98;;;12.10;68.80;;;;;;5041260;28;20088;-77
2021/04/05 09:27:57;;;;;;;7.07;2.28;;;12.40;70.90;;;;;;5036610;28;20100;-77
2021/04/05 09:31:00;;;;;;;3.97;1.90;;;12.50;68.40;;;;;;5032352;28;20089;-77
2021/04/05 09:33:48;;;;;;;4.53;1.67;;;12.60;68.90;;;;;;5029185;28;20069;-77
2021/04/05 09:36:51;;;;;;;5.15;1.92;;;12.60;69.20;;;;;;5030428;28;20734;-78
2021/04/05 09:39:26;;;;;;;2.63;2.00;;;12.80;68.70;;;;;;5037380;28;20073;-77
2021/04/05 09:42:08;;;;;;;2.38;1.30;;;12.70;68.90;;;;;;5059129;28;20532;-77
2021/04/05 09:44:52;;;;;;;4.25;1.60;;;12.70;64.20;;;;;;5031582;28;20078;-77
2021/04/05 09:47:43;;;;;;;2.63;1.50;;;13.00;67.50;;;;;;5045665;28;20569;-78
2021/04/05 09:50:47;;;;;;;3.17;1.55;;;12.90;65.80;;;;;;5044564;28;20348;-78
2021/04/05 09:53:36;;;;;;;4.85;1.42;;;13.10;66.10;;;;;;4958215;28;20582;-77
2021/04/05 09:56:10;;;;;;;5.90;1.65;;;13.10;64.80;;;;;;4937230;28;20091;-77
2021/04/05 09:58:43;;;;;;;3.15;1.38;;;13.00;69.50;;;;;;5011799;28;20077;-78
2021/04/05 10:01:26;;;;;;;3.97;1.80;;;13.00;64.60;;;;;;5025793;28;20165;-76
2021/04/05 10:03:56;;;;;;;6.20;1.35;;;12.90;67.50;;;;;;5027514;28;20081;-79
2021/04/05 10:06:24;;;;;;;3.53;1.30;;;13.00;63.50;;;;;;5032460;28;20096;-78
2021/04/05 10:08:51;;;;;;;4.43;1.75;;;13.10;62.30;;;;;;5031135;28;20093;-78
2021/04/05 10:11:18;;;;;;;5.68;1.60;;;13.10;64.80;;;;;;5042124;28;20093;-77
2021/04/05 10:13:49;;;;;;;2.47;1.10;;;12.80;61.90;;;;;;5051748;28;21290;-78
2021/04/05 10:16:16;;;;;;;3.55;1.30;;;13.00;63.10;;;;;;5029859;28;20527;-76
2021/04/05 10:18:50;;;;;;;2.30;1.20;;;13.10;64.80;;;;;;5039178;28;20665;-76
2021/04/05 10:21:17;;;;;;;3.75;1.45;;;13.20;65.60;;;;;;5045385;28;20105;-76
2021/04/05 10:23:45;;;;;;;6.35;1.13;;;13.50;65.00;;;;;;5042463;28;20127;-77
2021/04/05 10:26:14;;;;;;;3.97;0.98;;;13.30;63.70;;;;;;5042297;28;20164;-77
2021/04/05 10:28:42;;;;;;;2.85;1.30;;;13.30;64.50;;;;;;5023668;28;20120;-79
2021/04/05 10:31:12;;;;;;;3.92;1.40;;;13.30;65.20;;;;;;5019906;28;20093;-76
2021/04/05 10:33:56;;;;;;;2.80;1.20;;;13.30;59.50;;;;;;5035893;28;20086;-76
2021/04/05 10:36:24;;;;;;;4.30;1.25;;;13.30;65.10;;;;;;5026648;28;20080;-77
2021/04/05 10:38:52;;;;;;;4.10;1.20;;;13.30;62.60;;;;;;5045542;28;20086;-76
2021/04/05 10:41:20;;;;;;;4.43;1.30;;;13.30;63.10;;;;;;5025853;28;20082;-77
2021/04/05 10:43:58;;;;;;;2.13;1.40;;;13.30;60.60;;;;;;5017724;28;20545;-77
2021/04/05 10:46:30;;;;;;;2.08;1.08;;;13.40;60.60;;;;;;5050038;28;20065;-77
2021/04/05 10:49:07;;;;;;;2.75;1.33;;;13.50;60.70;;;;;;5043885;28;20188;-77
2021/04/05 10:51:40;;;;;;;3.40;1.17;;;13.50;59.40;;;;;;5037773;28;20176;-77
2021/04/05 10:54:33;;;;;;;3.42;1.25;;;13.50;60.00;;;;;;5038654;28;20074;-78
2021/04/05 10:57:05;;;;;;;4.03;0.98;;;13.50;60.10;;;;;;5046857;28;20492;-77
2021/04/05 10:59:33;;;;;;;2.35;1.20;;;13.40;58.50;;;;;;5039349;28;20088;-76
2021/04/05 11:02:29;;;;;;;4.78;0.85;;;13.40;61.00;;;;;;5055566;28;20065;-78
2021/04/05 11:05:00;;;;;;;;;;;13.30;61.00;;;;;;5022479;28;20081;-77
2021/04/05 11:07:30;;;;;;;7.15;2.38;;;13.40;60.90;;;;;;5036968;28;19965;-79
2021/04/05 11:09:58;;;;;;;4.88;1.90;;;13.50;61.40;;;;;;5054402;28;20104;-77
2021/04/05 11:12:32;;;;;;;2.35;1.08;;;13.60;60.90;;;;;;5050392;28;20139;-77
2021/04/05 11:15:02;;;;;;;2.25;1.10;;;13.50;59.80;;;;;;5033270;28;20153;-78
2021/04/05 11:17:30;;;;;;;5.28;1.30;;;13.60;59.10;;;;;;5045060;28;20078;-81
2021/04/05 11:19:56;;;;;;;3.42;1.27;;;13.60;58.50;;;;;;5028090;28;20104;-80
2021/04/05 11:22:29;;;;;;;15.73;2.58;;;13.60;58.20;;;;;;5030026;28;20077;-77
2021/04/05 11:25:03;;;;;;;2.17;1.20;;;13.60;61.40;;;;;;5035431;28;20107;-78
2021/04/05 11:27:32;;;;;;;4.30;1.20;;;13.50;58.90;;;;;;5049381;28;20090;-80
2021/04/05 11:30:02;;;;;;;2.83;1.45;;;13.40;62.00;;;;;;5025276;28;20113;-81
2021/04/05 11:32:31;;;;;;;2.13;1.27;;;13.40;60.20;;;;;;5021883;28;20140;-78
2021/04/05 11:35:00;;;;;;;2.15;1.40;;;13.40;62.50;;;;;;5047493;28;20101;-79
2021/04/05 11:37:33;;;;;;;2.25;1.17;;;13.60;62.40;;;;;;5045749;28;20160;-78
2021/04/05 11:40:12;;;;;;;5.20;1.42;;;13.50;59.10;;;;;;5047805;28;20089;-80
2021/04/05 11:42:46;;;;;;;3.78;1.27;;;13.40;59.50;;;;;;5028659;28;20070;-78
2021/04/05 11:45:28;;;;;;;2.38;1.70;;;13.40;65.90;;;;;;5046363;28;20078;-81
2021/04/05 11:47:56;;;;;;;2.92;1.60;;;13.50;62.70;;;;;;5028561;28;20074;-81
2021/04/05 11:50:24;;;;;;;2.67;1.30;;;13.40;63.30;;;;;;5041396;28;20094;-78
2021/04/05 11:52:58;;;;;;;3.15;1.70;;;13.40;64.10;;;;;;5052845;28;20097;-81
2021/04/05 11:55:36;;;;;;;3.92;1.42;;;13.50;64.00;;;;;;5060643;28;20080;-79
2021/04/05 11:58:14;;;;;;;2.10;1.20;;;13.70;64.70;;;;;;5053844;28;20101;-78
2021/04/05 12:00:53;;;;;;;5.22;1.42;;;13.70;59.80;;;;;;5025500;28;20101;-80
2021/04/05 12:03:31;;;;;;;3.35;1.75;;;13.80;58.90;;;;;;5044032;28;20078;-78
2021/04/05 12:06:09;;;;;;;3.55;1.80;;;13.70;59.00;;;;;;5036392;28;20085;-79
2021/04/05 12:09:07;;;;;;;3.03;1.70;;;13.70;59.50;;;;;;5037760;28;20113;-78
2021/04/05 12:11:45;;;;;;;3.08;1.27;;;13.60;59.20;;;;;;5044823;28;20089;-80
2021/04/05 12:14:16;;;;;;;4.72;1.20;;;13.60;58.80;;;;;;5045027;28;20076;-80
2021/04/05 12:16:50;;;;;;;3.10;1.60;;;13.80;56.40;;;;;;5052807;28;20536;-79
2021/04/05 12:19:32;;;;;;;3.22;1.45;;;13.80;55.10;;;;;;5046152;28;20072;-80
2021/04/05 12:21:59;;;;;;;2.70;1.83;;;13.90;57.80;;;;;;5041587;28;20094;-78
2021/04/05 12:24:30;;;;;;;4.75;1.60;;;13.80;58.60;;;;;;5033162;28;20174;-80
2021/04/05 12:27:08;;;;;;;5.05;1.77;;;14.00;57.50;;;;;;5048235;28;20161;-80
2021/04/05 12:29:36;;;;;;;5.15;1.50;;;13.90;57.10;;;;;;5045582;28;20089;-82
2021/04/05 12:32:05;;;;;;;3.55;1.52;;;13.80;58.10;;;;;;5031204;28;20164;-80
2021/04/05 12:34:36;;;;;;;3.38;1.80;;;13.90;59.80;;;;;;5039008;28;20074;-80
2021/04/05 12:37:17;;;;;;;6.50;1.40;;;13.90;57.80;;;;;;5033159;28;20070;-79
2021/04/05 12:39:50;;;;;;;7.32;1.77;;;14.00;59.00;;;;;;5038021;28;20684;-81
2021/04/05 12:42:17;;;;;;;3.28;1.80;;;14.00;58.70;;;;;;5016323;28;20074;-79
2021/04/05 12:44:45;;;;;;;4.07;1.85;;;13.90;57.80;;;;;;5034252;28;20127;-80
2021/04/05 12:47:13;;;;;;;4.35;1.60;;;13.90;57.50;;;;;;5043329;28;20120;-80
2021/04/05 12:49:44;;;;;;;5.43;1.45;;;14.10;59.70;;;;;;5017007;28;20560;-77
2021/04/05 12:52:18;;;;;;;3.85;1.15;;;14.20;55.10;;;;;;5044169;28;20435;-79
2021/04/05 12:54:52;;;;;;;9.73;2.10;;;14.20;56.60;;;;;;5024631;28;20084;-79
2021/04/05 12:57:31;;;;;;;6.07;2.22;;;14.10;53.80;;;;;;5031637;28;20077;-81
2021/04/05 12:59:57;;;;;;;4.57;1.83;;;14.10;58.00;;;;;;5025244;28;20101;-78
2021/04/05 13:02:27;;;;;;;3.13;1.42;;;14.10;55.20;;;;;;5016965;28;20078;-78
2021/04/05 13:04:59;;;;;;;3.60;1.60;;;14.20;55.50;;;;;;5048577;28;20073;-80
2021/04/05 13:07:48;;;;;;;3.13;1.08;;;14.20;54.60;;;;;;5052901;28;20074;-80
2021/04/05 13:10:29;;;;;;;3.17;0.90;;;14.10;54.00;;;;;;5036823;28;20097;-80
2021/04/05 13:13:01;;;;;;;4.38;1.25;;;14.20;52.80;;;;;;5019173;28;20085;-78
2021/04/05 13:15:31;;;;;;;3.30;1.48;;;14.20;52.70;;;;;;5015951;28;20092;-77
2021/04/05 13:18:03;;;;;;;5.43;1.50;;;14.20;53.80;;;;;;5032555;28;20072;-78
2021/04/05 13:20:33;;;;;;;5.40;1.42;;;14.20;54.50;;;;;;5036271;28;20098;-78
2021/04/05 13:23:06;;;;;;;3.47;0.95;;;14.20;54.70;;;;;;5051619;28;20173;-78
2021/04/05 13:25:37;;;;;;;3.88;1.45;;;14.10;55.70;;;;;;5032142;28;20157;-78
2021/04/05 13:28:04;;;;;;;2.65;1.30;;;14.10;54.90;;;;;;5037968;28;20082;-81
2021/04/05 13:30:39;;;;;;;5.90;1.38;;;14.10;54.20;;;;;;5039629;28;20088;-80
2021/04/05 13:33:07;;;;;;;2.15;1.20;;;14.10;55.30;;;;;;5040314;28;20065;-80